createdAt,value
2019-05-19T00:00:19.987Z,15.76
2019-05-19T00:01:20.007Z,15.70
2019-05-19T00:02:20.034Z,15.73
2019-05-19T00:03:20.045Z,15.68
2019-05-19T00:04:20.065Z,15.82
2019-05-19T00:05:20.091Z,15.72
2019-05-19T00:06:20.106Z,15.72
2019-05-19T00:07:20.126Z,15.70
2019-05-19T00:08:20.149Z,15.70
2019-05-19T00:09:20.169Z,15.70
2019-05-19T00:10:20.184Z,15.75
2019-05-19T00:11:20.206Z,15.62
2019-05-19T00:12:20.227Z,15.67
2019-05-19T00:13:20.248Z,15.65
2019-05-19T00:14:20.266Z,15.68
2019-05-19T00:15:20.294Z,15.62
2019-05-19T00:16:20.311Z,15.57
2019-05-19T00:17:20.335Z,15.65
2019-05-19T00:18:20.348Z,15.59
2019-05-19T00:19:26.717Z,15.54
2019-05-19T00:20:20.391Z,15.64
2019-05-19T00:21:20.409Z,15.51
2019-05-19T00:22:20.431Z,15.55
2019-05-19T00:23:20.453Z,15.57
2019-05-19T00:24:20.469Z,15.54
2019-05-19T00:25:20.490Z,15.52
2019-05-19T00:26:20.508Z,15.46
2019-05-19T00:27:20.532Z,15.44
2019-05-19T00:28:20.550Z,15.49
2019-05-19T00:29:20.567Z,15.54
2019-05-19T00:30:20.588Z,15.46
2019-05-19T00:31:20.610Z,15.49
2019-05-19T00:32:20.648Z,15.46
2019-05-19T00:33:20.648Z,15.39
2019-05-19T00:34:20.671Z,15.42
2019-05-19T00:35:20.691Z,15.40
2019-05-19T00:36:20.708Z,15.37
2019-05-19T00:37:20.732Z,15.33
2019-05-19T00:38:20.752Z,15.31
2019-05-19T00:39:20.768Z,15.31
2019-05-19T00:40:20.790Z,15.28
2019-05-19T00:41:20.825Z,15.31
2019-05-19T00:42:20.831Z,15.37
2019-05-19T00:43:21.050Z,15.37
2019-05-19T00:44:20.870Z,15.40
2019-05-19T00:45:20.888Z,15.49
2019-05-19T00:46:20.909Z,15.36
2019-05-19T00:47:20.937Z,15.42
2019-05-19T00:48:20.949Z,15.39
2019-05-19T00:49:20.970Z,15.37
2019-05-19T00:50:20.991Z,15.47
2019-05-19T00:51:21.014Z,15.36
2019-05-19T00:52:21.028Z,15.37
2019-05-19T00:53:21.051Z,15.40
2019-05-19T00:54:21.075Z,15.40
2019-05-19T00:55:21.088Z,15.39
2019-05-19T00:56:21.107Z,15.37
2019-05-19T00:57:21.134Z,15.29
2019-05-19T00:58:21.150Z,15.31
2019-05-19T00:59:21.202Z,15.31
2019-05-19T01:00:21.197Z,15.24
2019-05-19T01:01:21.211Z,15.21
2019-05-19T01:02:21.228Z,15.31
2019-05-19T01:03:21.248Z,15.27
2019-05-19T01:04:21.271Z,15.25
2019-05-19T01:05:21.296Z,15.21
2019-05-19T01:06:21.309Z,15.21
2019-05-19T01:07:21.326Z,15.25
2019-05-19T01:08:21.346Z,15.18
2019-05-19T01:09:21.619Z,15.21
2019-05-19T01:10:21.387Z,15.19
2019-05-19T01:11:21.410Z,15.11
2019-05-19T01:12:21.435Z,15.02
2019-05-19T01:13:21.449Z,15.04
2019-05-19T01:14:21.467Z,15.21
2019-05-19T01:15:21.485Z,15.19
2019-05-19T01:16:21.506Z,15.14
2019-05-19T01:17:21.528Z,15.11
2019-05-19T01:18:21.549Z,15.04
2019-05-19T01:19:21.574Z,14.92
2019-05-19T01:20:21.587Z,14.94
2019-05-19T01:21:21.604Z,14.96
2019-05-19T01:22:21.626Z,14.94
2019-05-19T01:23:21.646Z,14.96
2019-05-19T01:24:21.664Z,14.94
2019-05-19T01:25:21.692Z,14.97
2019-05-19T01:26:21.707Z,14.92
2019-05-19T01:27:21.727Z,15.02
2019-05-19T01:28:21.745Z,14.96
2019-05-19T01:29:21.765Z,14.85
2019-05-19T01:30:21.787Z,14.88
2019-05-19T01:31:21.816Z,14.86
2019-05-19T01:32:21.825Z,14.89
2019-05-19T01:33:21.858Z,14.89
2019-05-19T01:34:21.865Z,14.82
2019-05-19T01:35:21.881Z,14.84
2019-05-19T01:36:21.906Z,14.77
2019-05-19T01:37:21.939Z,14.81
2019-05-19T01:38:21.944Z,14.82
2019-05-19T01:39:21.984Z,14.82
2019-05-19T01:40:21.982Z,14.86
2019-05-19T01:41:22.011Z,14.84
2019-05-19T01:42:22.021Z,14.82
2019-05-19T01:43:22.043Z,14.82
2019-05-19T01:44:22.063Z,14.91
2019-05-19T01:45:22.085Z,14.84
2019-05-19T01:46:22.104Z,14.84
2019-05-19T01:47:22.118Z,14.88
2019-05-19T01:48:22.143Z,14.84
2019-05-19T01:49:22.172Z,14.82
2019-05-19T01:50:22.187Z,14.81
2019-05-19T01:51:22.204Z,14.81
2019-05-19T01:52:22.220Z,14.78
2019-05-19T01:53:22.240Z,14.78
2019-05-19T01:54:22.260Z,14.78
2019-05-19T01:55:22.290Z,14.72
2019-05-19T01:56:22.298Z,14.69
2019-05-19T01:57:22.318Z,14.78
2019-05-19T01:58:22.340Z,14.73
2019-05-19T01:59:22.361Z,14.65
2019-05-19T02:00:22.376Z,14.69
2019-05-19T02:01:22.396Z,14.62
2019-05-19T02:02:22.422Z,14.69
2019-05-19T02:03:22.432Z,14.59
2019-05-19T02:04:22.458Z,14.59
2019-05-19T02:05:22.474Z,14.63
2019-05-19T02:06:22.492Z,14.69
2019-05-19T02:07:22.519Z,14.68
2019-05-19T02:08:22.531Z,14.66
2019-05-19T02:09:22.550Z,14.70
2019-05-19T02:10:22.570Z,14.72
2019-05-19T02:11:22.593Z,14.70
2019-05-19T02:12:22.610Z,14.63
2019-05-19T02:13:22.634Z,14.69
2019-05-19T02:14:22.650Z,14.69
2019-05-19T02:15:22.673Z,14.69
2019-05-19T02:16:22.689Z,14.70
2019-05-19T02:17:22.710Z,14.66
2019-05-19T02:18:22.726Z,14.63
2019-05-19T02:19:22.749Z,14.63
2019-05-19T02:20:32.741Z,14.62
2019-05-19T02:21:22.786Z,14.63
2019-05-19T02:22:22.804Z,14.63
2019-05-19T02:23:22.830Z,14.68
2019-05-19T02:24:22.878Z,14.60
2019-05-19T02:25:22.862Z,14.63
2019-05-19T02:26:22.890Z,14.65
2019-05-19T02:27:22.905Z,14.60
2019-05-19T02:28:22.932Z,14.58
2019-05-19T02:29:22.940Z,14.50
2019-05-19T02:30:22.971Z,14.51
2019-05-19T02:31:22.989Z,14.50
2019-05-19T02:32:22.999Z,14.50
2019-05-19T02:33:23.025Z,14.51
2019-05-19T02:34:23.041Z,14.48
2019-05-19T02:35:23.069Z,14.44
2019-05-19T02:36:23.076Z,14.40
2019-05-19T02:37:23.100Z,14.43
2019-05-19T02:38:23.121Z,14.33
2019-05-19T02:39:23.137Z,14.40
2019-05-19T02:40:23.159Z,14.33
2019-05-19T02:41:23.187Z,14.32
2019-05-19T02:42:23.194Z,14.32
2019-05-19T02:43:23.222Z,14.35
2019-05-19T02:44:23.235Z,14.33
2019-05-19T02:45:23.256Z,14.35
2019-05-19T02:46:23.279Z,14.26
2019-05-19T02:47:23.292Z,14.23
2019-05-19T02:48:23.311Z,14.25
2019-05-19T02:49:23.360Z,14.30
2019-05-19T02:50:23.357Z,14.23
2019-05-19T02:51:23.370Z,14.28
2019-05-19T02:52:23.454Z,14.30
2019-05-19T02:53:23.410Z,14.29
2019-05-19T02:54:23.433Z,14.25
2019-05-19T02:55:23.445Z,14.26
2019-05-19T02:56:23.478Z,14.26
2019-05-19T02:57:23.486Z,14.32
2019-05-19T02:58:23.507Z,14.26
2019-05-19T02:59:23.523Z,14.28
2019-05-19T03:00:23.550Z,14.29
2019-05-19T03:01:23.565Z,14.29
2019-05-19T03:02:23.584Z,14.32
2019-05-19T03:03:23.607Z,14.28
2019-05-19T03:04:23.620Z,14.23
2019-05-19T03:05:23.638Z,14.23
2019-05-19T03:06:23.667Z,14.17
2019-05-19T03:07:23.684Z,14.18
2019-05-19T03:08:23.704Z,14.18
2019-05-19T03:09:23.720Z,14.17
2019-05-19T03:10:23.736Z,14.18
2019-05-19T03:11:23.756Z,14.15
2019-05-19T03:12:23.789Z,14.18
2019-05-19T03:13:23.800Z,14.17
2019-05-19T03:14:23.811Z,14.14
2019-05-19T03:15:23.834Z,14.14
2019-05-19T03:16:23.858Z,14.18
2019-05-19T03:17:23.889Z,14.17
2019-05-19T03:18:23.896Z,14.17
2019-05-19T03:19:23.911Z,14.15
2019-05-19T03:20:23.931Z,14.18
2019-05-19T03:21:23.954Z,14.18
2019-05-19T03:22:23.973Z,14.11
2019-05-19T03:23:23.990Z,14.04
2019-05-19T03:24:24.007Z,14.00
2019-05-19T03:25:24.034Z,14.11
2019-05-19T03:26:24.049Z,14.11
2019-05-19T03:27:24.075Z,14.00
2019-05-19T03:28:24.084Z,14.03
2019-05-19T03:29:24.100Z,13.99
2019-05-19T03:30:24.125Z,13.96
2019-05-19T03:31:24.140Z,13.96
2019-05-19T03:32:24.173Z,13.97
2019-05-19T03:33:24.185Z,13.99
2019-05-19T03:34:24.205Z,13.90
2019-05-19T03:35:24.229Z,13.89
2019-05-19T03:36:24.275Z,13.93
2019-05-19T03:37:24.263Z,13.90
2019-05-19T03:38:24.286Z,13.93
2019-05-19T03:39:24.297Z,13.87
2019-05-19T03:40:24.314Z,13.86
2019-05-19T03:41:24.333Z,13.87
2019-05-19T03:42:24.355Z,13.89
2019-05-19T03:43:24.369Z,13.90
2019-05-19T03:44:24.391Z,13.87
2019-05-19T03:45:24.416Z,13.87
2019-05-19T03:46:24.430Z,13.85
2019-05-19T03:47:24.455Z,13.83
2019-05-19T03:48:24.466Z,13.79
2019-05-19T03:49:24.493Z,13.77
2019-05-19T03:50:24.509Z,13.74
2019-05-19T03:51:30.627Z,13.75
2019-05-19T03:52:24.545Z,13.77
2019-05-19T03:53:24.571Z,13.81
2019-05-19T03:54:24.584Z,13.79
2019-05-19T03:55:24.613Z,13.79
2019-05-19T03:56:24.621Z,13.75
2019-05-19T03:57:24.640Z,13.78
2019-05-19T03:58:24.660Z,13.78
2019-05-19T03:59:24.678Z,13.75
2019-05-19T04:00:24.701Z,13.81
2019-05-19T04:01:24.717Z,13.90
2019-05-19T04:02:24.737Z,13.86
2019-05-19T04:03:24.758Z,13.86
2019-05-19T04:04:24.782Z,13.86
2019-05-19T04:05:24.804Z,13.79
2019-05-19T04:06:24.809Z,13.79
2019-05-19T04:07:24.835Z,13.86
2019-05-19T04:08:24.848Z,13.86
2019-05-19T04:09:24.872Z,13.93
2019-05-19T04:10:24.895Z,13.87
2019-05-19T04:11:24.905Z,13.87
2019-05-19T04:12:24.924Z,14.03
2019-05-19T04:13:24.945Z,14.03
2019-05-19T04:14:24.962Z,14.11
2019-05-19T04:15:24.984Z,14.07
2019-05-19T04:16:25.008Z,14.05
2019-05-19T04:17:25.020Z,14.03
2019-05-19T04:18:25.040Z,14.12
2019-05-19T04:19:25.057Z,14.12
2019-05-19T04:20:25.077Z,14.17
2019-05-19T04:21:25.097Z,14.15
2019-05-19T04:22:25.138Z,14.14
2019-05-19T04:23:25.155Z,14.15
2019-05-19T04:24:25.159Z,14.17
2019-05-19T04:25:25.172Z,14.17
2019-05-19T04:26:25.191Z,14.14
2019-05-19T04:27:25.210Z,14.14
2019-05-19T04:28:25.228Z,14.22
2019-05-19T04:29:25.252Z,14.17
2019-05-19T04:30:25.270Z,14.12
2019-05-19T04:31:25.291Z,14.20
2019-05-19T04:32:25.311Z,14.23
2019-05-19T04:33:25.326Z,14.14
2019-05-19T04:34:25.349Z,14.18
2019-05-19T04:35:25.365Z,14.20
2019-05-19T04:36:25.382Z,14.22
2019-05-19T04:37:25.431Z,14.22
2019-05-19T04:38:25.427Z,14.29
2019-05-19T04:39:25.452Z,14.28
2019-05-19T04:40:25.464Z,14.25
2019-05-19T04:41:25.482Z,14.22
2019-05-19T04:42:25.499Z,14.29
2019-05-19T04:43:25.523Z,14.22
2019-05-19T04:44:25.543Z,14.29
2019-05-19T04:45:25.561Z,14.29
2019-05-19T04:46:25.578Z,14.30
2019-05-19T04:47:25.597Z,14.40
2019-05-19T04:48:25.621Z,14.44
2019-05-19T04:49:25.636Z,14.48
2019-05-19T04:50:25.654Z,14.50
2019-05-19T04:51:25.680Z,14.53
2019-05-19T04:52:25.695Z,14.60
2019-05-19T04:53:25.717Z,14.66
2019-05-19T04:54:25.731Z,14.72
2019-05-19T04:55:25.750Z,14.62
2019-05-19T04:56:25.776Z,14.70
2019-05-19T04:57:25.799Z,14.70
2019-05-19T04:58:25.813Z,14.68
2019-05-19T04:59:25.869Z,14.73
2019-05-19T05:00:25.850Z,14.85
2019-05-19T05:01:25.871Z,14.88
2019-05-19T05:02:25.888Z,14.85
2019-05-19T05:03:25.913Z,14.88
2019-05-19T05:04:29.425Z,14.91
2019-05-19T05:05:25.957Z,14.92
2019-05-19T05:06:25.967Z,14.86
2019-05-19T05:07:26.004Z,14.88
2019-05-19T05:08:30.398Z,14.91
2019-05-19T05:09:26.029Z,14.94
2019-05-19T05:10:26.048Z,14.91
2019-05-19T05:11:26.066Z,14.96
2019-05-19T05:12:26.086Z,15.03
2019-05-19T05:13:26.104Z,15.09
2019-05-19T05:14:26.126Z,15.14
2019-05-19T05:15:26.147Z,15.07
2019-05-19T05:16:26.166Z,15.18
2019-05-19T05:17:26.189Z,15.14
2019-05-19T05:18:26.208Z,15.17
2019-05-19T05:19:26.225Z,15.11
2019-05-19T05:20:26.243Z,15.17
2019-05-19T05:21:26.268Z,15.22
2019-05-19T05:22:26.285Z,15.22
2019-05-19T05:23:26.307Z,15.18
2019-05-19T05:24:28.554Z,15.28
2019-05-19T05:25:26.345Z,15.24
2019-05-19T05:26:26.373Z,15.31
2019-05-19T05:27:26.388Z,15.37
2019-05-19T05:28:26.403Z,15.46
2019-05-19T05:29:26.428Z,15.54
2019-05-19T05:30:26.447Z,15.47
2019-05-19T05:31:26.466Z,15.67
2019-05-19T05:32:26.489Z,15.73
2019-05-19T05:33:26.506Z,15.75
2019-05-19T05:34:26.526Z,15.86
2019-05-19T05:35:26.558Z,15.91
2019-05-19T05:36:27.856Z,15.84
2019-05-19T05:37:26.591Z,15.86
2019-05-19T05:38:26.605Z,15.97
2019-05-19T05:39:26.628Z,16.02
2019-05-19T05:40:26.647Z,15.95
2019-05-19T05:41:26.671Z,16.15
2019-05-19T05:42:26.691Z,16.15
2019-05-19T05:43:26.705Z,16.26
2019-05-19T05:44:26.740Z,16.29
2019-05-19T05:45:26.803Z,16.26
2019-05-19T05:46:26.770Z,16.35
2019-05-19T05:47:26.794Z,16.41
2019-05-19T05:48:46.016Z,16.56
2019-05-19T05:49:26.833Z,16.58
2019-05-19T05:50:26.854Z,16.57
2019-05-19T05:51:26.870Z,16.57
2019-05-19T05:52:38.204Z,16.64
2019-05-19T05:53:26.920Z,16.74
2019-05-19T05:54:26.933Z,16.75
2019-05-19T05:55:26.967Z,16.78
2019-05-19T05:56:26.977Z,16.84
2019-05-19T05:57:26.999Z,16.93
2019-05-19T05:58:27.019Z,16.96
2019-05-19T05:59:27.049Z,16.97
2019-05-19T06:00:27.098Z,16.97
2019-05-19T06:01:27.085Z,16.91
2019-05-19T06:02:27.110Z,16.96
2019-05-19T06:03:27.123Z,16.93
2019-05-19T06:04:27.146Z,17.04
2019-05-19T06:05:27.168Z,17.05
2019-05-19T06:06:27.190Z,17.11
2019-05-19T06:07:27.214Z,17.15
2019-05-19T06:08:27.229Z,17.15
2019-05-19T06:09:27.255Z,17.27
2019-05-19T06:10:27.276Z,17.26
2019-05-19T06:11:27.296Z,17.26
2019-05-19T06:12:27.317Z,17.39
2019-05-19T06:13:27.343Z,17.48
2019-05-19T06:14:27.359Z,17.48
2019-05-19T06:15:27.384Z,17.51
2019-05-19T06:16:27.407Z,17.33
2019-05-19T06:17:27.432Z,17.38
2019-05-19T06:18:27.447Z,17.42
2019-05-19T06:19:27.476Z,17.54
2019-05-19T06:20:27.491Z,17.64
2019-05-19T06:21:27.521Z,17.79
2019-05-19T06:22:27.535Z,17.80
2019-05-19T06:23:27.556Z,17.85
2019-05-19T06:24:27.579Z,17.78
2019-05-19T06:25:27.789Z,17.74
2019-05-19T06:26:27.623Z,17.70
2019-05-19T06:27:27.643Z,17.79
2019-05-19T06:28:27.665Z,17.72
2019-05-19T06:29:27.691Z,17.76
2019-05-19T06:30:27.715Z,17.71
2019-05-19T06:31:27.739Z,17.80
2019-05-19T06:32:27.754Z,17.86
2019-05-19T06:33:27.778Z,17.98
2019-05-19T06:34:27.806Z,18.11
2019-05-19T06:35:27.819Z,18.13
2019-05-19T06:36:27.843Z,18.25
2019-05-19T06:37:27.864Z,18.33
2019-05-19T06:38:27.905Z,18.31
2019-05-19T06:39:27.914Z,18.20
2019-05-19T06:40:27.946Z,18.43
2019-05-19T06:41:27.953Z,18.52
2019-05-19T06:42:27.983Z,18.52
2019-05-19T06:43:28.022Z,18.49
2019-05-19T06:44:28.018Z,18.50
2019-05-19T06:45:28.065Z,18.56
2019-05-19T06:46:28.073Z,18.60
2019-05-19T06:47:28.095Z,18.53
2019-05-19T06:48:28.109Z,18.58
2019-05-19T06:49:28.130Z,18.52
2019-05-19T06:50:28.154Z,18.49
2019-05-19T06:51:28.176Z,18.52
2019-05-19T06:52:28.200Z,18.43
2019-05-19T06:53:28.222Z,18.47
2019-05-19T06:54:28.245Z,18.49
2019-05-19T06:55:28.272Z,18.28
2019-05-19T06:56:28.295Z,18.28
2019-05-19T06:57:28.313Z,18.34
2019-05-19T06:58:28.333Z,18.34
2019-05-19T06:59:28.356Z,18.34
2019-05-19T07:00:28.376Z,18.35
2019-05-19T07:01:28.409Z,18.28
2019-05-19T07:02:28.422Z,18.44
2019-05-19T07:03:28.442Z,18.55
2019-05-19T07:04:28.471Z,18.52
2019-05-19T07:05:28.497Z,18.58
2019-05-19T07:06:28.512Z,18.55
2019-05-19T07:07:28.531Z,18.62
2019-05-19T07:08:28.557Z,18.81
2019-05-19T07:09:28.636Z,18.75
2019-05-19T07:10:28.599Z,18.95
2019-05-19T07:11:28.629Z,18.75
2019-05-19T07:12:28.647Z,18.55
2019-05-19T07:13:28.667Z,18.50
2019-05-19T07:14:28.697Z,18.50
2019-05-19T07:15:28.712Z,18.44
2019-05-19T07:16:28.740Z,18.45
2019-05-19T07:17:28.760Z,18.53
2019-05-19T07:18:28.777Z,18.41
2019-05-19T07:19:28.803Z,18.44
2019-05-19T07:20:28.824Z,18.53
2019-05-19T07:21:28.845Z,18.49
2019-05-19T07:22:28.868Z,18.53
2019-05-19T07:23:29.084Z,18.59
2019-05-19T07:24:28.913Z,18.59
2019-05-19T07:25:28.936Z,18.63
2019-05-19T07:26:28.966Z,18.73
2019-05-19T07:27:28.978Z,18.74
2019-05-19T07:28:29.000Z,18.77
2019-05-19T07:29:29.023Z,18.99
2019-05-19T07:30:29.048Z,19.04
2019-05-19T07:31:29.069Z,19.00
2019-05-19T07:32:29.089Z,19.08
2019-05-19T07:33:29.113Z,18.77
2019-05-19T07:34:29.135Z,18.92
2019-05-19T07:35:29.176Z,18.83
2019-05-19T07:36:29.181Z,18.78
2019-05-19T07:37:29.201Z,18.90
2019-05-19T07:38:29.230Z,18.92
2019-05-19T07:39:29.246Z,18.93
2019-05-19T07:40:29.268Z,19.04
2019-05-19T07:41:29.296Z,19.07
2019-05-19T07:42:29.319Z,19.07
2019-05-19T07:43:29.336Z,19.11
2019-05-19T07:44:29.362Z,19.09
2019-05-19T07:45:29.381Z,19.21
2019-05-19T07:46:29.402Z,19.31
2019-05-19T07:47:29.432Z,19.31
2019-05-19T07:48:29.458Z,19.39
2019-05-19T07:49:29.472Z,19.51
2019-05-19T07:50:29.503Z,19.67
2019-05-19T07:51:29.555Z,19.66
2019-05-19T07:52:29.538Z,19.62
2019-05-19T07:53:42.248Z,19.51
2019-05-19T07:54:29.585Z,19.30
2019-05-19T07:55:29.619Z,19.26
2019-05-19T07:56:29.638Z,19.24
2019-05-19T07:57:29.655Z,19.27
2019-05-19T07:58:29.679Z,19.29
2019-05-19T07:59:29.696Z,19.33
2019-05-19T08:00:29.758Z,19.33
2019-05-19T08:01:29.743Z,19.36
2019-05-19T08:02:29.824Z,19.48
2019-05-19T08:03:29.795Z,19.64
2019-05-19T08:04:29.815Z,19.58
2019-05-19T08:05:29.836Z,19.59
2019-05-19T08:06:29.857Z,19.62
2019-05-19T08:07:29.882Z,19.76
2019-05-19T08:08:29.905Z,19.76
2019-05-19T08:09:29.931Z,19.91
2019-05-19T08:10:29.949Z,19.84
2019-05-19T08:11:29.994Z,20.00
2019-05-19T08:12:30.182Z,19.96
2019-05-19T08:13:30.019Z,20.02
2019-05-19T08:14:30.049Z,19.86
2019-05-19T08:15:30.072Z,20.06
2019-05-19T08:16:30.088Z,20.02
2019-05-19T08:17:30.109Z,20.10
2019-05-19T08:18:30.144Z,20.10
2019-05-19T08:19:30.164Z,20.25
2019-05-19T08:20:30.181Z,20.37
2019-05-19T08:21:30.203Z,20.36
2019-05-19T08:22:30.233Z,20.39
2019-05-19T08:23:30.253Z,20.43
2019-05-19T08:24:30.286Z,20.47
2019-05-19T08:25:30.344Z,20.56
2019-05-19T08:26:30.321Z,20.59
2019-05-19T08:27:30.344Z,20.65
2019-05-19T08:28:30.368Z,20.65
2019-05-19T08:29:30.394Z,20.66
2019-05-19T08:30:30.489Z,20.65
2019-05-19T08:31:30.524Z,20.51
2019-05-19T08:32:30.461Z,20.43
2019-05-19T08:33:30.504Z,20.34
2019-05-19T08:34:30.511Z,20.41
2019-05-19T08:35:30.542Z,20.47
2019-05-19T08:36:30.560Z,20.74
2019-05-19T08:37:30.579Z,20.87
2019-05-19T08:38:30.605Z,21.00
2019-05-19T08:39:30.625Z,21.09
2019-05-19T08:40:30.662Z,21.14
2019-05-19T08:41:30.673Z,20.93
2019-05-19T08:42:30.701Z,20.60
2019-05-19T08:43:30.718Z,20.78
2019-05-19T08:44:30.746Z,20.85
2019-05-19T08:45:30.769Z,20.96
2019-05-19T08:46:30.792Z,21.06
2019-05-19T08:47:30.816Z,21.12
2019-05-19T08:48:30.847Z,21.20
2019-05-19T08:49:30.878Z,21.27
2019-05-19T08:50:30.983Z,21.32
2019-05-19T08:51:30.910Z,21.39
2019-05-19T08:52:30.939Z,21.39
2019-05-19T08:53:30.958Z,21.46
2019-05-19T08:54:30.980Z,21.33
2019-05-19T08:55:31.010Z,21.35
2019-05-19T08:56:31.040Z,21.11
2019-05-19T08:57:31.053Z,21.03
2019-05-19T08:58:31.079Z,21.00
2019-05-19T08:59:31.103Z,21.05
2019-05-19T09:00:34.927Z,21.00
2019-05-19T09:01:31.148Z,20.97
2019-05-19T09:02:31.173Z,21.00
2019-05-19T09:03:31.201Z,21.09
2019-05-19T09:04:31.218Z,21.12
2019-05-19T09:05:31.246Z,21.15
2019-05-19T09:06:31.274Z,21.35
2019-05-19T09:07:31.308Z,21.40
2019-05-19T09:08:31.311Z,21.52
2019-05-19T09:09:31.344Z,21.62
2019-05-19T09:10:31.361Z,21.62
2019-05-19T09:11:31.393Z,21.80
2019-05-19T09:12:31.622Z,21.89
2019-05-19T09:13:31.432Z,22.08
2019-05-19T09:14:31.456Z,22.20
2019-05-19T09:15:31.488Z,22.14
2019-05-19T09:16:31.507Z,22.00
2019-05-19T09:17:31.529Z,21.79
2019-05-19T09:18:31.554Z,21.73
2019-05-19T09:19:31.576Z,21.72
2019-05-19T09:20:31.601Z,21.69
2019-05-19T09:21:31.634Z,21.70
2019-05-19T09:22:31.657Z,21.70
2019-05-19T09:23:31.678Z,21.75
2019-05-19T09:24:31.701Z,21.77
2019-05-19T09:25:31.722Z,21.82
2019-05-19T09:26:31.745Z,21.96
2019-05-19T09:27:31.775Z,21.89
2019-05-19T09:28:31.795Z,21.89
2019-05-19T09:29:31.827Z,21.96
2019-05-19T09:30:31.842Z,21.98
2019-05-19T09:31:31.868Z,22.13
2019-05-19T09:32:31.891Z,22.17
2019-05-19T09:33:31.919Z,22.20
2019-05-19T09:34:31.945Z,22.13
2019-05-19T09:35:31.967Z,22.08
2019-05-19T09:36:31.991Z,22.30
2019-05-19T09:37:32.022Z,22.23
2019-05-19T09:38:32.133Z,22.23
2019-05-19T09:39:32.071Z,22.26
2019-05-19T09:40:32.089Z,22.14
2019-05-19T09:41:32.110Z,22.04
2019-05-19T09:42:32.142Z,22.04
2019-05-19T09:43:32.170Z,21.99
2019-05-19T09:44:32.204Z,21.79
2019-05-19T09:45:32.217Z,21.82
2019-05-19T09:46:32.283Z,21.85
2019-05-19T09:47:32.398Z,22.11
2019-05-19T09:48:32.284Z,22.25
2019-05-19T09:49:32.312Z,22.44
2019-05-19T09:50:32.337Z,22.57
2019-05-19T09:51:32.356Z,22.62
2019-05-19T09:52:32.385Z,22.50
2019-05-19T09:53:32.409Z,22.48
2019-05-19T09:54:44.111Z,22.44
2019-05-19T09:55:32.458Z,22.69
2019-05-19T09:56:32.558Z,22.70
2019-05-19T09:57:32.507Z,22.80
2019-05-19T09:58:32.532Z,22.60
2019-05-19T09:59:32.555Z,22.57
2019-05-19T10:00:32.580Z,22.60
2019-05-19T10:01:32.612Z,22.68
2019-05-19T10:02:32.629Z,22.65
2019-05-19T10:03:32.652Z,22.63
2019-05-19T10:04:32.706Z,22.59
2019-05-19T10:05:32.711Z,22.59
2019-05-19T10:06:32.731Z,22.69
2019-05-19T10:07:32.750Z,22.70
2019-05-19T10:08:32.779Z,22.84
2019-05-19T10:09:32.821Z,22.57
2019-05-19T10:10:32.828Z,22.45
2019-05-19T10:11:32.899Z,22.35
2019-05-19T10:12:32.877Z,22.29
2019-05-19T10:13:32.900Z,22.39
2019-05-19T10:14:32.929Z,22.43
2019-05-19T10:15:32.951Z,22.44
2019-05-19T10:16:32.977Z,22.39
2019-05-19T10:17:33.004Z,22.47
2019-05-19T10:18:33.033Z,22.45
2019-05-19T10:19:33.052Z,22.48
2019-05-19T10:20:33.083Z,22.54
2019-05-19T10:21:33.106Z,22.57
2019-05-19T10:22:33.501Z,22.55
2019-05-19T10:23:33.151Z,22.69
2019-05-19T10:24:33.172Z,22.69
2019-05-19T10:25:33.199Z,22.83
2019-05-19T10:26:33.222Z,23.02
2019-05-19T10:27:33.271Z,23.08
2019-05-19T10:28:33.279Z,23.20
2019-05-19T10:29:33.305Z,23.37
2019-05-19T10:30:33.335Z,23.43
2019-05-19T10:31:33.348Z,23.56
2019-05-19T10:32:33.379Z,23.73
2019-05-19T10:33:33.399Z,23.84
2019-05-19T10:34:33.423Z,23.86
2019-05-19T10:35:33.448Z,23.77
2019-05-19T10:36:33.494Z,23.63
2019-05-19T10:37:33.502Z,23.23
2019-05-19T10:38:33.523Z,22.84
2019-05-19T10:39:33.552Z,22.44
2019-05-19T10:40:33.575Z,22.26
2019-05-19T10:41:33.597Z,22.25
2019-05-19T10:42:33.632Z,22.44
2019-05-19T10:43:33.648Z,22.48
2019-05-19T10:44:33.701Z,22.62
2019-05-19T10:45:33.701Z,22.68
2019-05-19T10:46:33.728Z,22.76
2019-05-19T10:47:33.750Z,22.90
2019-05-19T10:48:33.776Z,22.98
2019-05-19T10:49:33.801Z,23.10
2019-05-19T10:50:33.830Z,23.18
2019-05-19T10:51:33.847Z,23.32
2019-05-19T10:52:33.872Z,23.50
2019-05-19T10:53:33.902Z,23.63
2019-05-19T10:54:33.927Z,23.81
2019-05-19T10:55:36.489Z,23.74
2019-05-19T10:56:33.975Z,23.59
2019-05-19T10:57:34.002Z,23.58
2019-05-19T10:58:34.025Z,23.77
2019-05-19T10:59:34.055Z,23.78
2019-05-19T11:00:34.077Z,23.87
2019-05-19T11:01:34.100Z,23.73
2019-05-19T11:02:34.132Z,23.61
2019-05-19T11:03:34.161Z,23.59
2019-05-19T11:04:34.180Z,23.68
2019-05-19T11:05:34.205Z,23.81
2019-05-19T11:06:34.227Z,23.87
2019-05-19T11:07:34.254Z,24.05
2019-05-19T11:08:34.281Z,23.88
2019-05-19T11:09:34.304Z,23.73
2019-05-19T11:10:34.330Z,23.84
2019-05-19T11:11:34.362Z,23.84
2019-05-19T11:12:34.383Z,23.87
2019-05-19T11:13:34.406Z,23.83
2019-05-19T11:14:34.440Z,23.77
2019-05-19T11:15:34.459Z,23.78
2019-05-19T11:16:34.486Z,23.93
2019-05-19T11:17:34.508Z,23.95
2019-05-19T11:18:34.541Z,24.18
2019-05-19T11:19:34.560Z,24.30
2019-05-19T11:20:34.586Z,24.30
2019-05-19T11:21:34.614Z,24.36
2019-05-19T11:22:34.646Z,24.35
2019-05-19T11:23:34.662Z,24.38
2019-05-19T11:24:34.690Z,24.50
2019-05-19T11:25:34.720Z,24.30
2019-05-19T11:26:34.746Z,24.20
2019-05-19T11:27:34.768Z,24.08
2019-05-19T11:28:34.802Z,23.98
2019-05-19T11:29:34.818Z,24.11
2019-05-19T11:30:34.847Z,24.14
2019-05-19T11:31:34.872Z,24.30
2019-05-19T11:32:34.900Z,24.30
2019-05-19T11:33:34.926Z,24.35
2019-05-19T11:34:34.949Z,24.28
2019-05-19T11:35:34.977Z,24.32
2019-05-19T11:36:35.003Z,24.36
2019-05-19T11:37:35.031Z,24.16
2019-05-19T11:38:35.058Z,24.14
2019-05-19T11:39:35.079Z,24.14
2019-05-19T11:40:35.107Z,24.14
2019-05-19T11:41:35.143Z,24.05
2019-05-19T11:42:35.158Z,24.17
2019-05-19T11:43:35.184Z,24.18
2019-05-19T11:44:35.218Z,24.08
2019-05-19T11:45:35.239Z,24.03
2019-05-19T11:46:35.262Z,24.21
2019-05-19T11:47:35.288Z,24.05
2019-05-19T11:48:35.315Z,23.99
2019-05-19T11:49:35.349Z,24.18
2019-05-19T11:50:35.371Z,24.29
2019-05-19T11:51:35.400Z,24.29
2019-05-19T11:52:35.430Z,24.40
2019-05-19T11:53:35.453Z,24.35
2019-05-19T11:54:35.481Z,24.40
2019-05-19T11:55:35.511Z,24.30
2019-05-19T11:56:35.529Z,24.36
2019-05-19T11:57:35.549Z,24.20
2019-05-19T11:58:35.586Z,24.23
2019-05-19T11:59:35.604Z,23.96
2019-05-19T12:00:35.631Z,23.86
2019-05-19T12:01:35.657Z,23.81
2019-05-19T12:02:35.685Z,23.81
2019-05-19T12:03:35.763Z,23.69
2019-05-19T12:04:35.911Z,23.78
2019-05-19T12:05:35.760Z,23.76
2019-05-19T12:06:39.532Z,23.81
2019-05-19T12:07:35.811Z,23.92
2019-05-19T12:08:35.858Z,23.91
2019-05-19T12:09:35.862Z,23.99
2019-05-19T12:10:35.888Z,24.01
2019-05-19T12:11:35.918Z,24.21
2019-05-19T12:12:35.937Z,24.26
2019-05-19T12:13:35.964Z,24.17
2019-05-19T12:14:35.996Z,24.08
2019-05-19T12:15:36.016Z,23.78
2019-05-19T12:16:36.043Z,23.61
2019-05-19T12:17:36.067Z,23.39
2019-05-19T12:18:36.099Z,23.40
2019-05-19T12:19:36.125Z,23.54
2019-05-19T12:20:36.159Z,23.65
2019-05-19T12:21:36.171Z,23.88
2019-05-19T12:22:36.195Z,23.96
2019-05-19T12:23:36.219Z,24.10
2019-05-19T12:24:36.243Z,24.10
2019-05-19T12:25:36.278Z,24.01
2019-05-19T12:26:36.301Z,24.05
2019-05-19T12:27:36.326Z,24.10
2019-05-19T12:28:36.348Z,24.08
2019-05-19T12:29:36.375Z,24.06
2019-05-19T12:30:36.407Z,24.13
2019-05-19T12:31:36.426Z,24.20
2019-05-19T12:32:36.531Z,24.30
2019-05-19T12:33:50.780Z,24.35
2019-05-19T12:34:36.503Z,24.35
2019-05-19T12:35:36.527Z,24.35
2019-05-19T12:36:36.557Z,24.36
2019-05-19T12:37:36.577Z,24.28
2019-05-19T12:38:36.603Z,24.11
2019-05-19T12:39:36.626Z,24.14
2019-05-19T12:40:36.653Z,24.17
2019-05-19T12:41:36.690Z,24.17
2019-05-19T12:42:36.703Z,24.20
2019-05-19T12:43:36.731Z,24.16
2019-05-19T12:44:36.754Z,24.26
2019-05-19T12:45:36.787Z,24.32
2019-05-19T12:46:36.811Z,24.29
2019-05-19T12:47:36.837Z,24.36
2019-05-19T12:48:36.860Z,24.39
2019-05-19T12:49:36.883Z,24.38
2019-05-19T12:50:36.923Z,24.53
2019-05-19T12:51:36.937Z,24.57
2019-05-19T12:52:36.959Z,24.54